Argillite, KY

10:12 PM EDT on September 02, 2014 (GMT -0400)
Flatwoods y | Change Station
CLOSE
Current Station
Personal Weather Station
Location: Flatwoods,, KY
Elevation: 656 ft
Nearby Weather Stations

Elev 656 ft 38.52 °N, 82.71 °W | Updated 12 minutes ago

Mostly Cloudy
Mostly Cloudy
71.6 °F
Feels Like 71.6 °F
N
0.0
Wind Variable Wind from SSW

Today
High -- | Low -- °F
--% Chance of Precip.
Yesterday
High -- | Low -- °F
Precip. -- in
7:01 AM 7:59 PM
First Quarter, 57% visible
Pressure 29.97 in
Visibility 10.0 miles
Clouds Clear
Dew Point 70 °F
Humidity 93%
Rainfall 0.48 in
Snow Depth Not available.
UV 0 out of 12
Pollen 9.30 out of 12
Air Quality Not available.
Flu Activity Not available.
METAR KHTS 030151Z 21003KT 10SM CLR 21/21 A2999 RMK AO2 RAE15 SLP147 P0000 T02110206 $

More Conditions Fewer Conditions

Pressure 29.97 in
Visibility 10.0 miles
Clouds Clear
Dew Point 70 °F
Humidity 93%
Rainfall 0.48 in
Snow Depth Not available.
UV 0 out of 12
Pollen 9.30 out of 12
Air Quality Not available.
Flu Activity Not available.
METAR KHTS 030151Z 21003KT 10SM CLR 21/21 A2999 RMK AO2 RAE15 SLP147 P0000 T02110206 $

More Conditions Fewer Conditions

10-Day Weather Forecast

Almanac

Astronomy

Sep. 02, 2014 Rise Set
Actual Time 7:01 AM EDT 7:59 PM EDT
Civil Twilight 6:34 AM EDT 8:26 PM EDT
Nautical Twilight 6:02 AM EDT 8:59 PM EDT
Astronomical Twilight 5:28 AM EDT 9:32 PM EDT
Moon 2:39 PM EDT (9/2) 12:06 AM EDT (9/2)
Length of Visible Light 13h 52m
Length of Day
12h 58m
Tomorrow will be 2m 23s shorter.
First Quarter, 57% of the Moon is Illuminated
Today
First Quarter
Sep 8
Full
Sep 15
Last Quarter
Sep 24
New
Oct 1
First Quarter

Today's Extremes

State Highs State Lows

Community

WunderPhotos

Upload Photos

1,749,841 photos uploaded!

Nearby

Snow Depth

Station Depth Elevation
No new snow has been reported.

Earthquake Activity

City Distance Mag. Time & Date
No recent earthquake activity has been reported nearby.
Minimum magnitude displayed is 2.5.

Coastal Water Temperatures

Place Temperature
No Stations Reporting

Nearby Weather Stations